sensor_id;sensor_type;location;lat;lon;timestamp;P1;durP1;ratioP1;P2;durP2;ratioP2
10945;SDS011;5525;42.648;23.368;2023-05-10T00:02:03;9.07;;;6.80;;
10945;SDS011;5525;42.648;23.368;2023-05-10T00:04:31;7.53;;;6.50;;
10945;SDS011;5525;42.648;23.368;2023-05-10T00:06:57;9.35;;;6.82;;
10945;SDS011;5525;42.648;23.368;2023-05-10T00:09:25;8.80;;;7.35;;
10945;SDS011;5525;42.648;23.368;2023-05-10T00:11:52;8.13;;;6.85;;
10945;SDS011;5525;42.648;23.368;2023-05-10T00:14:19;9.48;;;7.75;;
10945;SDS011;5525;42.648;23.368;2023-05-10T00:16:45;9.15;;;7.40;;
10945;SDS011;5525;42.648;23.368;2023-05-10T00:19:12;8.68;;;7.22;;
10945;SDS011;5525;42.648;23.368;2023-05-10T00:21:39;9.80;;;7.20;;
10945;SDS011;5525;42.648;23.368;2023-05-10T00:24:05;8.57;;;7.20;;
10945;SDS011;5525;42.648;23.368;2023-05-10T00:26:33;9.40;;;7.95;;
10945;SDS011;5525;42.648;23.368;2023-05-10T00:29:00;8.55;;;7.65;;
10945;SDS011;5525;42.648;23.368;2023-05-10T00:31:27;8.70;;;7.25;;
10945;SDS011;5525;42.648;23.368;2023-05-10T00:33:54;8.77;;;7.22;;
10945;SDS011;5525;42.648;23.368;2023-05-10T00:36:22;10.25;;;8.38;;
10945;SDS011;5525;42.648;23.368;2023-05-10T00:38:49;8.88;;;7.80;;
10945;SDS011;5525;42.648;23.368;2023-05-10T00:41:16;10.65;;;8.60;;
10945;SDS011;5525;42.648;23.368;2023-05-10T00:43:44;10.45;;;8.95;;
10945;SDS011;5525;42.648;23.368;2023-05-10T00:46:10;10.68;;;8.52;;
10945;SDS011;5525;42.648;23.368;2023-05-10T00:48:38;10.52;;;8.50;;
10945;SDS011;5525;42.648;23.368;2023-05-10T00:51:04;9.85;;;8.65;;
10945;SDS011;5525;42.648;23.368;2023-05-10T00:53:32;12.82;;;8.88;;
10945;SDS011;5525;42.648;23.368;2023-05-10T00:56:00;10.00;;;8.90;;
10945;SDS011;5525;42.648;23.368;2023-05-10T00:58:28;11.25;;;9.82;;
10945;SDS011;5525;42.648;23.368;2023-05-10T01:00:57;10.75;;;9.25;;
10945;SDS011;5525;42.648;23.368;2023-05-10T01:03:24;12.50;;;9.43;;
10945;SDS011;5525;42.648;23.368;2023-05-10T01:05:52;13.55;;;10.05;;
10945;SDS011;5525;42.648;23.368;2023-05-10T01:08:18;11.85;;;9.57;;
10945;SDS011;5525;42.648;23.368;2023-05-10T01:10:45;12.38;;;8.93;;
10945;SDS011;5525;42.648;23.368;2023-05-10T01:13:14;12.02;;;10.63;;
10945;SDS011;5525;42.648;23.368;2023-05-10T01:15:57;12.88;;;10.00;;
10945;SDS011;5525;42.648;23.368;2023-05-10T01:18:24;10.88;;;9.20;;
10945;SDS011;5525;42.648;23.368;2023-05-10T01:20:55;10.77;;;8.98;;
10945;SDS011;5525;42.648;23.368;2023-05-10T01:23:36;10.70;;;8.80;;
10945;SDS011;5525;42.648;23.368;2023-05-10T01:29:29;9.45;;;8.02;;
10945;SDS011;5525;42.648;23.368;2023-05-10T01:32:30;8.48;;;7.45;;
10945;SDS011;5525;42.648;23.368;2023-05-10T01:35:02;10.05;;;8.00;;
10945;SDS011;5525;42.648;23.368;2023-05-10T01:37:35;8.40;;;6.90;;
10945;SDS011;5525;42.648;23.368;2023-05-10T01:40:10;9.43;;;8.10;;
10945;SDS011;5525;42.648;23.368;2023-05-10T01:42:46;8.00;;;6.78;;
10945;SDS011;5525;42.648;23.368;2023-05-10T01:45:18;7.95;;;6.45;;
10945;SDS011;5525;42.648;23.368;2023-05-10T01:47:53;6.70;;;6.03;;
10945;SDS011;5525;42.648;23.368;2023-05-10T01:50:29;7.85;;;6.07;;
10945;SDS011;5525;42.648;23.368;2023-05-10T01:52:57;7.10;;;5.80;;
10945;SDS011;5525;42.648;23.368;2023-05-10T01:55:26;5.22;;;4.72;;
10945;SDS011;5525;42.648;23.368;2023-05-10T01:57:57;6.35;;;5.75;;
10945;SDS011;5525;42.648;23.368;2023-05-10T02:00:28;6.28;;;5.68;;
10945;SDS011;5525;42.648;23.368;2023-05-10T02:02:58;7.65;;;5.78;;
10945;SDS011;5525;42.648;23.368;2023-05-10T02:05:27;7.15;;;5.93;;
10945;SDS011;5525;42.648;23.368;2023-05-10T02:07:56;8.05;;;6.55;;
10945;SDS011;5525;42.648;23.368;2023-05-10T02:10:24;7.18;;;5.45;;
10945;SDS011;5525;42.648;23.368;2023-05-10T02:12:51;8.25;;;5.53;;
10945;SDS011;5525;42.648;23.368;2023-05-10T02:15:22;8.05;;;5.88;;
10945;SDS011;5525;42.648;23.368;2023-05-10T02:17:49;8.15;;;5.07;;
10945;SDS011;5525;42.648;23.368;2023-05-10T02:20:19;6.13;;;5.53;;
10945;SDS011;5525;42.648;23.368;2023-05-10T02:22:48;8.18;;;5.63;;
10945;SDS011;5525;42.648;23.368;2023-05-10T02:25:17;6.53;;;5.57;;
10945;SDS011;5525;42.648;23.368;2023-05-10T02:27:45;7.82;;;5.07;;
10945;SDS011;5525;42.648;23.368;2023-05-10T02:30:13;5.72;;;4.30;;
10945;SDS011;5525;42.648;23.368;2023-05-10T02:32:41;5.13;;;4.50;;
10945;SDS011;5525;42.648;23.368;2023-05-10T02:35:10;6.05;;;4.40;;
10945;SDS011;5525;42.648;23.368;2023-05-10T02:37:38;5.25;;;4.22;;
10945;SDS011;5525;42.648;23.368;2023-05-10T02:40:06;5.18;;;4.03;;
10945;SDS011;5525;42.648;23.368;2023-05-10T02:42:35;6.57;;;4.00;;
10945;SDS011;5525;42.648;23.368;2023-05-10T02:45:05;8.13;;;4.13;;
10945;SDS011;5525;42.648;23.368;2023-05-10T02:47:37;5.00;;;4.18;;
10945;SDS011;5525;42.648;23.368;2023-05-10T02:50:04;4.82;;;3.78;;
10945;SDS011;5525;42.648;23.368;2023-05-10T02:52:35;5.15;;;3.83;;
10945;SDS011;5525;42.648;23.368;2023-05-10T02:55:07;4.68;;;4.10;;
10945;SDS011;5525;42.648;23.368;2023-05-10T02:57:36;6.10;;;4.40;;
10945;SDS011;5525;42.648;23.368;2023-05-10T03:00:07;4.95;;;3.88;;
10945;SDS011;5525;42.648;23.368;2023-05-10T03:02:34;4.53;;;3.53;;
10945;SDS011;5525;42.648;23.368;2023-05-10T03:05:01;6.38;;;4.43;;
10945;SDS011;5525;42.648;23.368;2023-05-10T03:07:28;5.25;;;4.20;;
10945;SDS011;5525;42.648;23.368;2023-05-10T03:09:57;6.95;;;4.57;;
10945;SDS011;5525;42.648;23.368;2023-05-10T03:12:27;5.70;;;4.47;;
10945;SDS011;5525;42.648;23.368;2023-05-10T03:15:09;6.13;;;4.22;;
10945;SDS011;5525;42.648;23.368;2023-05-10T03:17:45;6.03;;;4.28;;
10945;SDS011;5525;42.648;23.368;2023-05-10T03:20:20;5.75;;;4.63;;
10945;SDS011;5525;42.648;23.368;2023-05-10T03:22:51;4.35;;;3.30;;
10945;SDS011;5525;42.648;23.368;2023-05-10T03:25:27;4.28;;;3.88;;
10945;SDS011;5525;42.648;23.368;2023-05-10T03:27:55;5.55;;;4.50;;
10945;SDS011;5525;42.648;23.368;2023-05-10T03:30:23;4.85;;;4.13;;
10945;SDS011;5525;42.648;23.368;2023-05-10T03:32:51;5.00;;;4.47;;
10945;SDS011;5525;42.648;23.368;2023-05-10T03:35:17;5.43;;;4.25;;
10945;SDS011;5525;42.648;23.368;2023-05-10T03:37:44;8.15;;;4.93;;
10945;SDS011;5525;42.648;23.368;2023-05-10T03:40:12;4.85;;;4.35;;
10945;SDS011;5525;42.648;23.368;2023-05-10T03:42:40;6.45;;;4.40;;
10945;SDS011;5525;42.648;23.368;2023-05-10T03:45:07;5.45;;;4.20;;
10945;SDS011;5525;42.648;23.368;2023-05-10T03:47:35;4.97;;;4.22;;
10945;SDS011;5525;42.648;23.368;2023-05-10T03:50:01;6.20;;;4.30;;
10945;SDS011;5525;42.648;23.368;2023-05-10T03:52:28;4.68;;;4.18;;
10945;SDS011;5525;42.648;23.368;2023-05-10T03:54:54;6.97;;;4.78;;
10945;SDS011;5525;42.648;23.368;2023-05-10T03:57:21;5.78;;;4.82;;
10945;SDS011;5525;42.648;23.368;2023-05-10T03:59:49;5.43;;;4.88;;
10945;SDS011;5525;42.648;23.368;2023-05-10T04:02:16;5.88;;;5.22;;
10945;SDS011;5525;42.648;23.368;2023-05-10T04:04:42;5.82;;;4.72;;
10945;SDS011;5525;42.648;23.368;2023-05-10T04:07:09;6.18;;;4.90;;
10945;SDS011;5525;42.648;23.368;2023-05-10T04:09:36;6.07;;;4.72;;
10945;SDS011;5525;42.648;23.368;2023-05-10T04:12:03;6.43;;;4.70;;
10945;SDS011;5525;42.648;23.368;2023-05-10T04:14:30;5.22;;;4.53;;
10945;SDS011;5525;42.648;23.368;2023-05-10T04:16:58;6.25;;;4.88;;
10945;SDS011;5525;42.648;23.368;2023-05-10T04:19:28;6.32;;;4.57;;
10945;SDS011;5525;42.648;23.368;2023-05-10T04:21:55;6.35;;;5.18;;
10945;SDS011;5525;42.648;23.368;2023-05-10T04:24:22;6.65;;;5.15;;
10945;SDS011;5525;42.648;23.368;2023-05-10T04:26:48;5.20;;;4.68;;
10945;SDS011;5525;42.648;23.368;2023-05-10T04:29:15;9.43;;;5.28;;
10945;SDS011;5525;42.648;23.368;2023-05-10T04:31:42;6.70;;;5.18;;
10945;SDS011;5525;42.648;23.368;2023-05-10T04:34:10;6.22;;;5.32;;
10945;SDS011;5525;42.648;23.368;2023-05-10T04:36:37;5.53;;;4.97;;
10945;SDS011;5525;42.648;23.368;2023-05-10T04:39:03;7.05;;;5.40;;
10945;SDS011;5525;42.648;23.368;2023-05-10T04:41:30;6.43;;;5.50;;
10945;SDS011;5525;42.648;23.368;2023-05-10T04:43:57;6.05;;;5.45;;
10945;SDS011;5525;42.648;23.368;2023-05-10T04:46:23;6.35;;;5.72;;
10945;SDS011;5525;42.648;23.368;2023-05-10T04:48:50;5.60;;;4.97;;
10945;SDS011;5525;42.648;23.368;2023-05-10T04:51:18;6.40;;;4.97;;
10945;SDS011;5525;42.648;23.368;2023-05-10T04:53:45;6.82;;;5.18;;
10945;SDS011;5525;42.648;23.368;2023-05-10T04:56:12;6.53;;;5.78;;
10945;SDS011;5525;42.648;23.368;2023-05-10T04:58:38;6.65;;;5.78;;
10945;SDS011;5525;42.648;23.368;2023-05-10T05:01:05;6.32;;;5.30;;
10945;SDS011;5525;42.648;23.368;2023-05-10T05:03:33;6.07;;;5.13;;
10945;SDS011;5525;42.648;23.368;2023-05-10T05:05:59;6.57;;;5.25;;
10945;SDS011;5525;42.648;23.368;2023-05-10T05:08:27;6.78;;;5.03;;
10945;SDS011;5525;42.648;23.368;2023-05-10T05:10:54;6.38;;;5.45;;
10945;SDS011;5525;42.648;23.368;2023-05-10T05:13:21;6.45;;;5.82;;
10945;SDS011;5525;42.648;23.368;2023-05-10T05:15:47;7.65;;;6.05;;
10945;SDS011;5525;42.648;23.368;2023-05-10T05:18:14;6.85;;;5.45;;
10945;SDS011;5525;42.648;23.368;2023-05-10T05:20:41;6.97;;;6.28;;
10945;SDS011;5525;42.648;23.368;2023-05-10T05:23:07;7.53;;;6.40;;
10945;SDS011;5525;42.648;23.368;2023-05-10T05:25:35;6.97;;;6.28;;
10945;SDS011;5525;42.648;23.368;2023-05-10T05:28:02;7.63;;;5.72;;
10945;SDS011;5525;42.648;23.368;2023-05-10T05:30:29;8.98;;;6.50;;
10945;SDS011;5525;42.648;23.368;2023-05-10T05:32:56;9.90;;;6.78;;
10945;SDS011;5525;42.648;23.368;2023-05-10T05:35:23;7.55;;;5.97;;
10945;SDS011;5525;42.648;23.368;2023-05-10T05:37:50;7.55;;;6.63;;
10945;SDS011;5525;42.648;23.368;2023-05-10T05:40:16;9.80;;;6.85;;
10945;SDS011;5525;42.648;23.368;2023-05-10T05:42:45;8.55;;;7.00;;
10945;SDS011;5525;42.648;23.368;2023-05-10T05:45:11;8.07;;;6.45;;
10945;SDS011;5525;42.648;23.368;2023-05-10T05:47:39;9.60;;;7.07;;
10945;SDS011;5525;42.648;23.368;2023-05-10T05:50:06;9.57;;;6.57;;
10945;SDS011;5525;42.648;23.368;2023-05-10T05:52:33;8.60;;;7.13;;
10945;SDS011;5525;42.648;23.368;2023-05-10T05:55:01;8.43;;;7.30;;
10945;SDS011;5525;42.648;23.368;2023-05-10T05:57:27;9.95;;;7.53;;
10945;SDS011;5525;42.648;23.368;2023-05-10T05:59:55;10.38;;;8.00;;
10945;SDS011;5525;42.648;23.368;2023-05-10T06:02:22;9.77;;;7.63;;
10945;SDS011;5525;42.648;23.368;2023-05-10T06:04:49;10.93;;;8.95;;
10945;SDS011;5525;42.648;23.368;2023-05-10T06:07:16;12.23;;;9.32;;
10945;SDS011;5525;42.648;23.368;2023-05-10T06:09:43;11.02;;;8.38;;
10945;SDS011;5525;42.648;23.368;2023-05-10T06:12:09;9.77;;;8.32;;
10945;SDS011;5525;42.648;23.368;2023-05-10T06:14:36;11.65;;;8.60;;
10945;SDS011;5525;42.648;23.368;2023-05-10T06:17:04;11.63;;;9.02;;
10945;SDS011;5525;42.648;23.368;2023-05-10T06:19:31;11.52;;;8.75;;
10945;SDS011;5525;42.648;23.368;2023-05-10T06:21:58;10.25;;;9.00;;
10945;SDS011;5525;42.648;23.368;2023-05-10T06:24:25;10.82;;;8.35;;
10945;SDS011;5525;42.648;23.368;2023-05-10T06:26:52;11.10;;;8.55;;
10945;SDS011;5525;42.648;23.368;2023-05-10T06:29:18;12.13;;;8.82;;
10945;SDS011;5525;42.648;23.368;2023-05-10T06:31:45;11.80;;;10.55;;
10945;SDS011;5525;42.648;23.368;2023-05-10T06:34:14;10.25;;;8.70;;
10945;SDS011;5525;42.648;23.368;2023-05-10T06:36:40;9.55;;;7.55;;
10945;SDS011;5525;42.648;23.368;2023-05-10T06:39:07;9.85;;;8.25;;
10945;SDS011;5525;42.648;23.368;2023-05-10T06:41:34;10.25;;;7.75;;
10945;SDS011;5525;42.648;23.368;2023-05-10T06:44:00;9.15;;;7.93;;
10945;SDS011;5525;42.648;23.368;2023-05-10T06:46:28;9.55;;;7.97;;
10945;SDS011;5525;42.648;23.368;2023-05-10T06:48:54;9.15;;;7.60;;
10945;SDS011;5525;42.648;23.368;2023-05-10T06:51:23;9.57;;;7.90;;
10945;SDS011;5525;42.648;23.368;2023-05-10T06:53:49;8.73;;;7.82;;
10945;SDS011;5525;42.648;23.368;2023-05-10T06:56:16;8.65;;;7.53;;
10945;SDS011;5525;42.648;23.368;2023-05-10T06:58:43;10.55;;;8.00;;
10945;SDS011;5525;42.648;23.368;2023-05-10T07:01:09;8.40;;;6.75;;
10945;SDS011;5525;42.648;23.368;2023-05-10T07:03:36;8.90;;;7.75;;
10945;SDS011;5525;42.648;23.368;2023-05-10T07:06:03;8.55;;;7.47;;
10945;SDS011;5525;42.648;23.368;2023-05-10T07:08:33;11.38;;;8.20;;
10945;SDS011;5525;42.648;23.368;2023-05-10T07:11:00;9.38;;;8.20;;
10945;SDS011;5525;42.648;23.368;2023-05-10T07:13:28;10.35;;;8.23;;
10945;SDS011;5525;42.648;23.368;2023-05-10T07:15:56;9.55;;;8.13;;
10945;SDS011;5525;42.648;23.368;2023-05-10T07:18:23;8.95;;;7.80;;
10945;SDS011;5525;42.648;23.368;2023-05-10T07:20:50;9.65;;;7.90;;
10945;SDS011;5525;42.648;23.368;2023-05-10T07:23:17;8.63;;;7.53;;
10945;SDS011;5525;42.648;23.368;2023-05-10T07:25:46;8.35;;;7.47;;
10945;SDS011;5525;42.648;23.368;2023-05-10T07:28:13;10.48;;;8.07;;
10945;SDS011;5525;42.648;23.368;2023-05-10T07:30:40;10.60;;;8.07;;
10945;SDS011;5525;42.648;23.368;2023-05-10T07:33:07;8.65;;;7.70;;
10945;SDS011;5525;42.648;23.368;2023-05-10T07:35:34;11.07;;;8.80;;
10945;SDS011;5525;42.648;23.368;2023-05-10T07:38:01;11.10;;;8.20;;
10945;SDS011;5525;42.648;23.368;2023-05-10T07:40:28;10.93;;;7.85;;
10945;SDS011;5525;42.648;23.368;2023-05-10T07:42:56;9.18;;;8.23;;
10945;SDS011;5525;42.648;23.368;2023-05-10T07:45:24;9.50;;;8.05;;
10945;SDS011;5525;42.648;23.368;2023-05-10T07:47:51;12.18;;;8.90;;
10945;SDS011;5525;42.648;23.368;2023-05-10T07:50:18;8.68;;;7.78;;
10945;SDS011;5525;42.648;23.368;2023-05-10T07:52:46;11.00;;;8.18;;
10945;SDS011;5525;42.648;23.368;2023-05-10T07:55:13;9.85;;;8.52;;
10945;SDS011;5525;42.648;23.368;2023-05-10T07:57:39;10.80;;;9.00;;
10945;SDS011;5525;42.648;23.368;2023-05-10T08:00:08;12.75;;;9.32;;
10945;SDS011;5525;42.648;23.368;2023-05-10T08:02:38;12.23;;;9.65;;
10945;SDS011;5525;42.648;23.368;2023-05-10T08:05:05;11.13;;;8.60;;
10945;SDS011;5525;42.648;23.368;2023-05-10T08:07:32;11.38;;;8.77;;
10945;SDS011;5525;42.648;23.368;2023-05-10T08:09:59;10.23;;;9.02;;
10945;SDS011;5525;42.648;23.368;2023-05-10T08:12:26;10.52;;;8.75;;
10945;SDS011;5525;42.648;23.368;2023-05-10T08:14:53;10.50;;;9.02;;
10945;SDS011;5525;42.648;23.368;2023-05-10T08:17:21;10.23;;;8.82;;
10945;SDS011;5525;42.648;23.368;2023-05-10T08:19:47;10.90;;;8.73;;
10945;SDS011;5525;42.648;23.368;2023-05-10T08:22:14;9.90;;;7.90;;
10945;SDS011;5525;42.648;23.368;2023-05-10T08:24:41;8.07;;;7.28;;
10945;SDS011;5525;42.648;23.368;2023-05-10T08:27:08;9.50;;;7.85;;
10945;SDS011;5525;42.648;23.368;2023-05-10T08:29:35;9.50;;;8.50;;
10945;SDS011;5525;42.648;23.368;2023-05-10T08:32:02;9.18;;;8.23;;
10945;SDS011;5525;42.648;23.368;2023-05-10T08:34:30;12.32;;;8.57;;
10945;SDS011;5525;42.648;23.368;2023-05-10T08:36:57;10.35;;;8.95;;
10945;SDS011;5525;42.648;23.368;2023-05-10T08:39:23;11.52;;;8.90;;
10945;SDS011;5525;42.648;23.368;2023-05-10T08:41:50;11.30;;;9.35;;
10945;SDS011;5525;42.648;23.368;2023-05-10T08:44:20;10.07;;;8.88;;
10945;SDS011;5525;42.648;23.368;2023-05-10T08:46:46;10.20;;;9.10;;
10945;SDS011;5525;42.648;23.368;2023-05-10T08:49:19;12.00;;;10.00;;
10945;SDS011;5525;42.648;23.368;2023-05-10T08:51:49;11.77;;;10.20;;
10945;SDS011;5525;42.648;23.368;2023-05-10T08:54:18;10.30;;;9.20;;
10945;SDS011;5525;42.648;23.368;2023-05-10T08:56:45;10.32;;;9.27;;
10945;SDS011;5525;42.648;23.368;2023-05-10T08:59:12;9.88;;;8.55;;
10945;SDS011;5525;42.648;23.368;2023-05-10T09:01:41;10.07;;;9.07;;
10945;SDS011;5525;42.648;23.368;2023-05-10T09:04:10;10.93;;;9.10;;
10945;SDS011;5525;42.648;23.368;2023-05-10T09:06:39;8.77;;;7.88;;
10945;SDS011;5525;42.648;23.368;2023-05-10T09:09:07;10.38;;;8.40;;
10945;SDS011;5525;42.648;23.368;2023-05-10T09:11:34;11.20;;;8.63;;
10945;SDS011;5525;42.648;23.368;2023-05-10T09:14:01;10.50;;;8.93;;
10945;SDS011;5525;42.648;23.368;2023-05-10T09:16:28;10.27;;;9.07;;
10945;SDS011;5525;42.648;23.368;2023-05-10T09:18:55;12.65;;;9.75;;
10945;SDS011;5525;42.648;23.368;2023-05-10T09:21:22;9.48;;;8.57;;
10945;SDS011;5525;42.648;23.368;2023-05-10T09:23:49;9.63;;;8.40;;
10945;SDS011;5525;42.648;23.368;2023-05-10T09:26:23;9.40;;;8.20;;
10945;SDS011;5525;42.648;23.368;2023-05-10T09:28:50;9.93;;;8.80;;
10945;SDS011;5525;42.648;23.368;2023-05-10T09:31:17;10.15;;;9.15;;
10945;SDS011;5525;42.648;23.368;2023-05-10T09:33:45;10.02;;;8.98;;
10945;SDS011;5525;42.648;23.368;2023-05-10T09:36:13;10.68;;;9.07;;
10945;SDS011;5525;42.648;23.368;2023-05-10T09:38:46;9.63;;;8.65;;
10945;SDS011;5525;42.648;23.368;2023-05-10T09:41:17;9.48;;;8.48;;
10945;SDS011;5525;42.648;23.368;2023-05-10T09:43:46;8.98;;;8.05;;
10945;SDS011;5525;42.648;23.368;2023-05-10T09:46:14;9.27;;;8.38;;
10945;SDS011;5525;42.648;23.368;2023-05-10T09:48:42;9.07;;;8.10;;
10945;SDS011;5525;42.648;23.368;2023-05-10T09:51:10;8.90;;;8.00;;
10945;SDS011;5525;42.648;23.368;2023-05-10T09:53:44;8.82;;;8.00;;
10945;SDS011;5525;42.648;23.368;2023-05-10T09:56:11;8.57;;;7.78;;
10945;SDS011;5525;42.648;23.368;2023-05-10T09:58:38;12.15;;;10.88;;
10945;SDS011;5525;42.648;23.368;2023-05-10T10:01:06;8.77;;;7.88;;
10945;SDS011;5525;42.648;23.368;2023-05-10T10:03:40;8.18;;;7.30;;
10945;SDS011;5525;42.648;23.368;2023-05-10T10:06:08;9.60;;;8.60;;
10945;SDS011;5525;42.648;23.368;2023-05-10T10:08:34;8.82;;;7.80;;
10945;SDS011;5525;42.648;23.368;2023-05-10T10:11:01;8.25;;;7.45;;
10945;SDS011;5525;42.648;23.368;2023-05-10T10:13:28;8.93;;;7.70;;
10945;SDS011;5525;42.648;23.368;2023-05-10T10:15:57;9.68;;;8.32;;
10945;SDS011;5525;42.648;23.368;2023-05-10T10:18:25;8.02;;;7.22;;
10945;SDS011;5525;42.648;23.368;2023-05-10T10:20:53;8.00;;;7.20;;
10945;SDS011;5525;42.648;23.368;2023-05-10T10:23:21;8.75;;;7.40;;
10945;SDS011;5525;42.648;23.368;2023-05-10T10:25:48;8.02;;;7.10;;
10945;SDS011;5525;42.648;23.368;2023-05-10T10:28:21;7.68;;;6.82;;
10945;SDS011;5525;42.648;23.368;2023-05-10T10:30:52;8.77;;;7.47;;
10945;SDS011;5525;42.648;23.368;2023-05-10T10:33:29;8.50;;;7.60;;
10945;SDS011;5525;42.648;23.368;2023-05-10T10:36:02;8.63;;;7.32;;
10945;SDS011;5525;42.648;23.368;2023-05-10T10:38:37;10.70;;;7.38;;
10945;SDS011;5525;42.648;23.368;2023-05-10T10:41:27;8.95;;;7.30;;
10945;SDS011;5525;42.648;23.368;2023-05-10T10:47:01;8.05;;;6.38;;
10945;SDS011;5525;42.648;23.368;2023-05-10T10:49:32;7.05;;;6.45;;
10945;SDS011;5525;42.648;23.368;2023-05-10T10:52:15;7.95;;;7.13;;
10945;SDS011;5525;42.648;23.368;2023-05-10T10:54:51;7.07;;;6.45;;
10945;SDS011;5525;42.648;23.368;2023-05-10T10:57:18;8.07;;;7.28;;
10945;SDS011;5525;42.648;23.368;2023-05-10T10:59:47;7.78;;;6.10;;
10945;SDS011;5525;42.648;23.368;2023-05-10T11:02:33;8.48;;;7.03;;
10945;SDS011;5525;42.648;23.368;2023-05-10T11:07:51;7.40;;;6.50;;
10945;SDS011;5525;42.648;23.368;2023-05-10T11:10:19;9.15;;;6.50;;
10945;SDS011;5525;42.648;23.368;2023-05-10T11:12:52;7.60;;;6.72;;
10945;SDS011;5525;42.648;23.368;2023-05-10T11:15:20;7.57;;;6.70;;
10945;SDS011;5525;42.648;23.368;2023-05-10T11:17:54;7.57;;;6.65;;
10945;SDS011;5525;42.648;23.368;2023-05-10T11:20:21;7.10;;;6.35;;
10945;SDS011;5525;42.648;23.368;2023-05-10T11:22:51;6.88;;;6.03;;
10945;SDS011;5525;42.648;23.368;2023-05-10T11:25:19;7.05;;;6.35;;
10945;SDS011;5525;42.648;23.368;2023-05-10T11:27:47;8.68;;;6.80;;
10945;SDS011;5525;42.648;23.368;2023-05-10T11:30:14;8.38;;;7.45;;
10945;SDS011;5525;42.648;23.368;2023-05-10T11:32:41;8.05;;;7.25;;
10945;SDS011;5525;42.648;23.368;2023-05-10T11:35:08;9.23;;;6.57;;
10945;SDS011;5525;42.648;23.368;2023-05-10T11:37:36;9.30;;;7.03;;
10945;SDS011;5525;42.648;23.368;2023-05-10T11:40:08;8.82;;;6.88;;
10945;SDS011;5525;42.648;23.368;2023-05-10T11:42:35;7.78;;;6.78;;
10945;SDS011;5525;42.648;23.368;2023-05-10T11:45:03;8.18;;;5.97;;
10945;SDS011;5525;42.648;23.368;2023-05-10T11:47:30;7.70;;;6.13;;
10945;SDS011;5525;42.648;23.368;2023-05-10T11:49:57;7.45;;;6.70;;
10945;SDS011;5525;42.648;23.368;2023-05-10T11:52:25;7.68;;;6.68;;
10945;SDS011;5525;42.648;23.368;2023-05-10T11:54:51;7.85;;;7.05;;
10945;SDS011;5525;42.648;23.368;2023-05-10T11:57:20;8.32;;;6.57;;
10945;SDS011;5525;42.648;23.368;2023-05-10T11:59:52;8.23;;;6.80;;
10945;SDS011;5525;42.648;23.368;2023-05-10T12:02:19;8.20;;;7.30;;
10945;SDS011;5525;42.648;23.368;2023-05-10T12:04:46;9.57;;;7.97;;
10945;SDS011;5525;42.648;23.368;2023-05-10T12:07:13;8.65;;;7.15;;
10945;SDS011;5525;42.648;23.368;2023-05-10T12:09:42;10.23;;;7.55;;
10945;SDS011;5525;42.648;23.368;2023-05-10T12:12:09;10.63;;;7.47;;
10945;SDS011;5525;42.648;23.368;2023-05-10T12:14:37;7.90;;;7.10;;
10945;SDS011;5525;42.648;23.368;2023-05-10T12:17:04;8.30;;;7.50;;
10945;SDS011;5525;42.648;23.368;2023-05-10T12:19:36;12.77;;;9.43;;
10945;SDS011;5525;42.648;23.368;2023-05-10T12:22:04;10.93;;;6.88;;
10945;SDS011;5525;42.648;23.368;2023-05-10T12:24:33;7.90;;;7.13;;
10945;SDS011;5525;42.648;23.368;2023-05-10T12:27:04;10.00;;;6.50;;
10945;SDS011;5525;42.648;23.368;2023-05-10T12:29:32;9.13;;;7.07;;
10945;SDS011;5525;42.648;23.368;2023-05-10T12:32:00;10.32;;;7.80;;
10945;SDS011;5525;42.648;23.368;2023-05-10T12:34:29;10.50;;;8.43;;
10945;SDS011;5525;42.648;23.368;2023-05-10T12:36:56;8.85;;;7.50;;
10945;SDS011;5525;42.648;23.368;2023-05-10T12:39:23;8.07;;;7.28;;
10945;SDS011;5525;42.648;23.368;2023-05-10T12:41:50;7.57;;;6.50;;
10945;SDS011;5525;42.648;23.368;2023-05-10T12:44:17;9.00;;;6.60;;
10945;SDS011;5525;42.648;23.368;2023-05-10T12:46:44;7.45;;;6.60;;
10945;SDS011;5525;42.648;23.368;2023-05-10T12:49:12;7.63;;;6.65;;
10945;SDS011;5525;42.648;23.368;2023-05-10T12:51:39;7.47;;;6.78;;
10945;SDS011;5525;42.648;23.368;2023-05-10T12:54:05;8.43;;;7.18;;
10945;SDS011;5525;42.648;23.368;2023-05-10T12:56:32;9.55;;;7.20;;
10945;SDS011;5525;42.648;23.368;2023-05-10T12:58:59;10.70;;;7.80;;
10945;SDS011;5525;42.648;23.368;2023-05-10T13:01:25;11.00;;;6.57;;
10945;SDS011;5525;42.648;23.368;2023-05-10T13:03:52;6.97;;;6.30;;
10945;SDS011;5525;42.648;23.368;2023-05-10T13:06:20;7.22;;;6.53;;
10945;SDS011;5525;42.648;23.368;2023-05-10T13:08:46;8.70;;;6.93;;
10945;SDS011;5525;42.648;23.368;2023-05-10T13:11:13;8.32;;;6.28;;
10945;SDS011;5525;42.648;23.368;2023-05-10T13:13:41;8.85;;;6.22;;
10945;SDS011;5525;42.648;23.368;2023-05-10T13:16:08;8.25;;;6.35;;
10945;SDS011;5525;42.648;23.368;2023-05-10T13:18:35;11.23;;;7.10;;
10945;SDS011;5525;42.648;23.368;2023-05-10T13:21:01;6.88;;;6.18;;
10945;SDS011;5525;42.648;23.368;2023-05-10T13:23:30;7.82;;;6.45;;
10945;SDS011;5525;42.648;23.368;2023-05-10T13:25:57;9.18;;;6.80;;
10945;SDS011;5525;42.648;23.368;2023-05-10T13:28:23;7.18;;;6.38;;
10945;SDS011;5525;42.648;23.368;2023-05-10T13:30:51;9.25;;;6.47;;
10945;SDS011;5525;42.648;23.368;2023-05-10T13:33:18;8.85;;;6.72;;
10945;SDS011;5525;42.648;23.368;2023-05-10T13:35:44;7.25;;;6.55;;
10945;SDS011;5525;42.648;23.368;2023-05-10T13:38:11;7.72;;;6.32;;
10945;SDS011;5525;42.648;23.368;2023-05-10T13:40:40;11.50;;;6.78;;
10945;SDS011;5525;42.648;23.368;2023-05-10T13:43:06;7.22;;;6.20;;
10945;SDS011;5525;42.648;23.368;2023-05-10T13:45:33;7.97;;;6.20;;
10945;SDS011;5525;42.648;23.368;2023-05-10T13:48:00;12.18;;;7.85;;
10945;SDS011;5525;42.648;23.368;2023-05-10T13:50:26;9.55;;;7.63;;
10945;SDS011;5525;42.648;23.368;2023-05-10T13:52:53;7.95;;;6.88;;
10945;SDS011;5525;42.648;23.368;2023-05-10T13:58:43;7.60;;;6.63;;
10945;SDS011;5525;42.648;23.368;2023-05-10T14:01:10;8.38;;;7.43;;
10945;SDS011;5525;42.648;23.368;2023-05-10T14:03:37;8.35;;;6.80;;
10945;SDS011;5525;42.648;23.368;2023-05-10T14:06:03;12.82;;;6.60;;
10945;SDS011;5525;42.648;23.368;2023-05-10T14:08:32;10.25;;;6.80;;
10945;SDS011;5525;42.648;23.368;2023-05-10T14:10:59;7.15;;;6.22;;
10945;SDS011;5525;42.648;23.368;2023-05-10T14:13:25;6.63;;;5.97;;
10945;SDS011;5525;42.648;23.368;2023-05-10T14:15:54;9.43;;;6.72;;
10945;SDS011;5525;42.648;23.368;2023-05-10T14:18:21;8.80;;;6.82;;
10945;SDS011;5525;42.648;23.368;2023-05-10T14:20:47;8.18;;;6.20;;
10945;SDS011;5525;42.648;23.368;2023-05-10T14:23:15;8.65;;;6.50;;
10945;SDS011;5525;42.648;23.368;2023-05-10T14:25:41;8.55;;;6.45;;
10945;SDS011;5525;42.648;23.368;2023-05-10T14:28:09;9.25;;;7.03;;
10945;SDS011;5525;42.648;23.368;2023-05-10T14:30:35;8.05;;;7.22;;
10945;SDS011;5525;42.648;23.368;2023-05-10T14:33:03;10.02;;;7.63;;
10945;SDS011;5525;42.648;23.368;2023-05-10T14:35:30;8.85;;;7.95;;
10945;SDS011;5525;42.648;23.368;2023-05-10T14:37:57;8.70;;;7.00;;
10945;SDS011;5525;42.648;23.368;2023-05-10T14:40:23;7.55;;;6.72;;
10945;SDS011;5525;42.648;23.368;2023-05-10T14:42:51;8.38;;;7.03;;
10945;SDS011;5525;42.648;23.368;2023-05-10T14:45:18;10.30;;;6.95;;
10945;SDS011;5525;42.648;23.368;2023-05-10T14:47:45;9.25;;;7.50;;
10945;SDS011;5525;42.648;23.368;2023-05-10T14:50:13;9.02;;;7.32;;
10945;SDS011;5525;42.648;23.368;2023-05-10T14:56:02;7.75;;;6.95;;
10945;SDS011;5525;42.648;23.368;2023-05-10T14:58:28;7.75;;;6.93;;
10945;SDS011;5525;42.648;23.368;2023-05-10T15:00:56;11.27;;;6.22;;
10945;SDS011;5525;42.648;23.368;2023-05-10T15:03:23;9.25;;;6.72;;
10945;SDS011;5525;42.648;23.368;2023-05-10T15:05:51;7.68;;;6.10;;